sensor_id;sensor_type;location;lat;lon;timestamp;P1;durP1;ratioP1;P2;durP2;ratioP2
47804;SDS011;33568;45.286;9.900;2024-03-29T00:01:35;22.08;;;19.17;;
47804;SDS011;33568;45.286;9.900;2024-03-29T00:04:01;31.23;;;18.60;;
47804;SDS011;33568;45.286;9.900;2024-03-29T00:06:28;22.17;;;18.45;;
47804;SDS011;33568;45.286;9.900;2024-03-29T00:08:54;22.13;;;19.83;;
47804;SDS011;33568;45.286;9.900;2024-03-29T00:11:20;20.48;;;18.23;;
47804;SDS011;33568;45.286;9.900;2024-03-29T00:16:13;20.83;;;18.70;;
47804;SDS011;33568;45.286;9.900;2024-03-29T00:18:39;21.30;;;18.83;;
47804;SDS011;33568;45.286;9.900;2024-03-29T00:21:06;19.35;;;17.38;;
47804;SDS011;33568;45.286;9.900;2024-03-29T00:23:32;19.13;;;17.07;;
47804;SDS011;33568;45.286;9.900;2024-03-29T00:25:58;22.60;;;20.15;;
47804;SDS011;33568;45.286;9.900;2024-03-29T00:28:25;21.73;;;18.05;;
47804;SDS011;33568;45.286;9.900;2024-03-29T00:30:51;29.33;;;19.88;;
47804;SDS011;33568;45.286;9.900;2024-03-29T00:33:18;53.22;;;17.98;;
47804;SDS011;33568;45.286;9.900;2024-03-29T00:35:44;224.30;;;19.58;;
47804;SDS011;33568;45.286;9.900;2024-03-29T00:38:11;350.02;;;20.80;;
47804;SDS011;33568;45.286;9.900;2024-03-29T00:40:37;398.60;;;22.50;;
47804;SDS011;33568;45.286;9.900;2024-03-29T00:43:05;280.30;;;19.45;;
47804;SDS011;33568;45.286;9.900;2024-03-29T00:45:31;315.90;;;19.08;;
47804;SDS011;33568;45.286;9.900;2024-03-29T00:47:58;319.25;;;17.63;;
47804;SDS011;33568;45.286;9.900;2024-03-29T00:50:24;209.93;;;16.75;;
47804;SDS011;33568;45.286;9.900;2024-03-29T00:52:51;228.90;;;18.27;;
47804;SDS011;33568;45.286;9.900;2024-03-29T00:55:17;160.27;;;16.92;;
47804;SDS011;33568;45.286;9.900;2024-03-29T00:57:44;413.60;;;19.15;;
47804;SDS011;33568;45.286;9.900;2024-03-29T01:00:10;272.88;;;16.83;;
47804;SDS011;33568;45.286;9.900;2024-03-29T01:02:37;143.13;;;17.48;;
47804;SDS011;33568;45.286;9.900;2024-03-29T01:05:03;259.02;;;17.58;;
47804;SDS011;33568;45.286;9.900;2024-03-29T01:07:31;164.30;;;16.05;;
47804;SDS011;33568;45.286;9.900;2024-03-29T01:09:57;147.20;;;16.23;;
47804;SDS011;33568;45.286;9.900;2024-03-29T01:12:23;158.93;;;15.70;;
47804;SDS011;33568;45.286;9.900;2024-03-29T01:14:50;135.95;;;14.98;;
47804;SDS011;33568;45.286;9.900;2024-03-29T01:17:16;60.28;;;14.02;;
47804;SDS011;33568;45.286;9.900;2024-03-29T01:19:43;33.92;;;14.07;;
47804;SDS011;33568;45.286;9.900;2024-03-29T01:22:10;30.08;;;14.00;;
47804;SDS011;33568;45.286;9.900;2024-03-29T01:24:36;23.55;;;13.48;;
47804;SDS011;33568;45.286;9.900;2024-03-29T01:27:03;39.63;;;12.73;;
47804;SDS011;33568;45.286;9.900;2024-03-29T01:29:32;146.80;;;13.65;;
47804;SDS011;33568;45.286;9.900;2024-03-29T01:31:59;102.05;;;15.68;;
47804;SDS011;33568;45.286;9.900;2024-03-29T01:34:25;150.32;;;15.77;;
47804;SDS011;33568;45.286;9.900;2024-03-29T01:36:51;14.20;;;12.75;;
47804;SDS011;33568;45.286;9.900;2024-03-29T01:39:18;15.18;;;13.73;;
47804;SDS011;33568;45.286;9.900;2024-03-29T01:41:47;12.88;;;11.45;;
47804;SDS011;33568;45.286;9.900;2024-03-29T01:44:13;13.73;;;12.38;;
47804;SDS011;33568;45.286;9.900;2024-03-29T01:46:40;15.20;;;13.27;;
47804;SDS011;33568;45.286;9.900;2024-03-29T01:49:07;15.10;;;12.70;;
47804;SDS011;33568;45.286;9.900;2024-03-29T01:51:36;13.32;;;12.05;;
47804;SDS011;33568;45.286;9.900;2024-03-29T01:54:06;10.77;;;9.88;;
47804;SDS011;33568;45.286;9.900;2024-03-29T01:56:34;11.65;;;10.65;;
47804;SDS011;33568;45.286;9.900;2024-03-29T01:59:02;9.85;;;9.05;;
47804;SDS011;33568;45.286;9.900;2024-03-29T02:01:30;10.30;;;9.40;;
47804;SDS011;33568;45.286;9.900;2024-03-29T02:03:57;10.13;;;9.20;;
47804;SDS011;33568;45.286;9.900;2024-03-29T02:06:23;11.60;;;9.32;;
47804;SDS011;33568;45.286;9.900;2024-03-29T02:08:50;12.13;;;9.13;;
47804;SDS011;33568;45.286;9.900;2024-03-29T02:11:19;11.20;;;9.60;;
47804;SDS011;33568;45.286;9.900;2024-03-29T02:13:46;13.48;;;11.63;;
47804;SDS011;33568;45.286;9.900;2024-03-29T02:16:15;14.07;;;12.68;;
47804;SDS011;33568;45.286;9.900;2024-03-29T02:21:07;15.25;;;13.13;;
47804;SDS011;33568;45.286;9.900;2024-03-29T02:23:36;18.77;;;15.27;;
47804;SDS011;33568;45.286;9.900;2024-03-29T02:26:04;16.42;;;14.38;;
47804;SDS011;33568;45.286;9.900;2024-03-29T02:28:30;16.30;;;14.80;;
47804;SDS011;33568;45.286;9.900;2024-03-29T02:30:57;23.35;;;21.02;;
47804;SDS011;33568;45.286;9.900;2024-03-29T02:33:23;18.92;;;17.08;;
47804;SDS011;33568;45.286;9.900;2024-03-29T02:35:49;15.45;;;13.85;;
47804;SDS011;33568;45.286;9.900;2024-03-29T02:38:16;19.05;;;12.40;;
47804;SDS011;33568;45.286;9.900;2024-03-29T02:40:42;18.10;;;12.63;;
47804;SDS011;33568;45.286;9.900;2024-03-29T02:43:09;12.63;;;10.63;;
47804;SDS011;33568;45.286;9.900;2024-03-29T02:45:35;38.38;;;12.80;;
47804;SDS011;33568;45.286;9.900;2024-03-29T02:48:01;64.32;;;13.77;;
47804;SDS011;33568;45.286;9.900;2024-03-29T02:52:54;72.95;;;14.13;;
47804;SDS011;33568;45.286;9.900;2024-03-29T02:55:21;131.23;;;16.08;;
47804;SDS011;33568;45.286;9.900;2024-03-29T02:57:47;192.82;;;15.95;;
47804;SDS011;33568;45.286;9.900;2024-03-29T03:00:13;300.67;;;16.83;;
47804;SDS011;33568;45.286;9.900;2024-03-29T03:02:40;164.60;;;16.73;;
47804;SDS011;33568;45.286;9.900;2024-03-29T03:05:07;257.65;;;19.80;;
47804;SDS011;33568;45.286;9.900;2024-03-29T03:07:34;332.83;;;21.17;;
47804;SDS011;33568;45.286;9.900;2024-03-29T03:10:19;289.30;;;21.45;;
47804;SDS011;33568;45.286;9.900;2024-03-29T03:13:05;290.63;;;22.17;;
47804;SDS011;33568;45.286;9.900;2024-03-29T03:15:32;184.00;;;20.00;;
47804;SDS011;33568;45.286;9.900;2024-03-29T03:20:24;283.55;;;21.10;;
47804;SDS011;33568;45.286;9.900;2024-03-29T03:22:56;228.90;;;21.45;;
47804;SDS011;33568;45.286;9.900;2024-03-29T03:25:24;427.10;;;24.20;;
47804;SDS011;33568;45.286;9.900;2024-03-29T03:27:52;623.33;;;30.45;;
47804;SDS011;33568;45.286;9.900;2024-03-29T03:30:19;360.40;;;27.38;;
47804;SDS011;33568;45.286;9.900;2024-03-29T03:35:12;523.95;;;28.27;;
47804;SDS011;33568;45.286;9.900;2024-03-29T03:37:38;555.58;;;30.40;;
47804;SDS011;33568;45.286;9.900;2024-03-29T03:42:32;400.25;;;29.35;;
47804;SDS011;33568;45.286;9.900;2024-03-29T03:44:59;457.42;;;29.92;;
47804;SDS011;33568;45.286;9.900;2024-03-29T03:47:25;420.75;;;31.80;;
47804;SDS011;33568;45.286;9.900;2024-03-29T03:49:52;790.53;;;38.53;;
47804;SDS011;33568;45.286;9.900;2024-03-29T03:52:18;564.50;;;35.35;;
47804;SDS011;33568;45.286;9.900;2024-03-29T03:54:44;599.58;;;37.97;;
47804;SDS011;33568;45.286;9.900;2024-03-29T03:57:11;578.33;;;37.47;;
47804;SDS011;33568;45.286;9.900;2024-03-29T03:59:37;763.58;;;40.33;;
47804;SDS011;33568;45.286;9.900;2024-03-29T04:04:30;651.22;;;40.55;;
47804;SDS011;33568;45.286;9.900;2024-03-29T04:06:57;390.40;;;36.10;;
47804;SDS011;33568;45.286;9.900;2024-03-29T04:09:23;597.70;;;38.63;;
47804;SDS011;33568;45.286;9.900;2024-03-29T04:11:50;378.52;;;36.42;;
47804;SDS011;33568;45.286;9.900;2024-03-29T04:16:43;259.30;;;34.80;;
47804;SDS011;33568;45.286;9.900;2024-03-29T04:19:09;171.77;;;35.42;;
47804;SDS011;33568;45.286;9.900;2024-03-29T04:24:02;127.53;;;31.42;;
47804;SDS011;33568;45.286;9.900;2024-03-29T04:28:54;88.75;;;30.17;;
47804;SDS011;33568;45.286;9.900;2024-03-29T04:31:21;94.65;;;31.35;;
47804;SDS011;33568;45.286;9.900;2024-03-29T04:33:47;83.03;;;31.17;;
47804;SDS011;33568;45.286;9.900;2024-03-29T04:36:13;130.07;;;30.58;;
47804;SDS011;33568;45.286;9.900;2024-03-29T04:41:06;83.78;;;29.67;;
47804;SDS011;33568;45.286;9.900;2024-03-29T04:43:33;70.07;;;29.25;;
47804;SDS011;33568;45.286;9.900;2024-03-29T04:48:36;42.70;;;28.20;;
47804;SDS011;33568;45.286;9.900;2024-03-29T04:51:04;68.10;;;31.10;;
47804;SDS011;33568;45.286;9.900;2024-03-29T04:53:31;42.67;;;31.83;;
47804;SDS011;33568;45.286;9.900;2024-03-29T04:58:24;58.97;;;33.83;;
47804;SDS011;33568;45.286;9.900;2024-03-29T05:00:52;41.83;;;33.72;;
47804;SDS011;33568;45.286;9.900;2024-03-29T05:03:19;52.63;;;36.75;;
47804;SDS011;33568;45.286;9.900;2024-03-29T05:05:47;45.20;;;36.38;;
47804;SDS011;33568;45.286;9.900;2024-03-29T05:08:15;44.42;;;37.03;;
47804;SDS011;33568;45.286;9.900;2024-03-29T05:10:43;43.10;;;35.55;;
47804;SDS011;33568;45.286;9.900;2024-03-29T05:13:10;41.30;;;35.80;;
47804;SDS011;33568;45.286;9.900;2024-03-29T05:15:37;40.53;;;35.78;;
47804;SDS011;33568;45.286;9.900;2024-03-29T05:18:05;44.00;;;37.88;;
47804;SDS011;33568;45.286;9.900;2024-03-29T05:20:32;45.20;;;38.13;;
47804;SDS011;33568;45.286;9.900;2024-03-29T05:22:58;41.85;;;36.08;;
47804;SDS011;33568;45.286;9.900;2024-03-29T05:25:25;43.53;;;36.45;;
47804;SDS011;33568;45.286;9.900;2024-03-29T05:27:52;42.63;;;36.35;;
47804;SDS011;33568;45.286;9.900;2024-03-29T05:30:19;44.42;;;36.33;;
47804;SDS011;33568;45.286;9.900;2024-03-29T05:32:45;40.97;;;36.40;;
47804;SDS011;33568;45.286;9.900;2024-03-29T05:37:39;43.55;;;36.10;;
47804;SDS011;33568;45.286;9.900;2024-03-29T05:40:07;49.80;;;38.55;;
47804;SDS011;33568;45.286;9.900;2024-03-29T05:42:34;49.28;;;37.38;;
47804;SDS011;33568;45.286;9.900;2024-03-29T05:45:20;46.85;;;38.38;;
47804;SDS011;33568;45.286;9.900;2024-03-29T05:48:06;48.90;;;39.75;;
47804;SDS011;33568;45.286;9.900;2024-03-29T05:52:59;49.00;;;39.22;;
47804;SDS011;33568;45.286;9.900;2024-03-29T05:55:26;44.38;;;38.22;;
47804;SDS011;33568;45.286;9.900;2024-03-29T05:57:53;45.35;;;38.83;;
47804;SDS011;33568;45.286;9.900;2024-03-29T06:00:19;53.47;;;42.95;;
47804;SDS011;33568;45.286;9.900;2024-03-29T06:05:14;48.72;;;40.72;;
47804;SDS011;33568;45.286;9.900;2024-03-29T06:10:06;46.13;;;37.83;;
47804;SDS011;33568;45.286;9.900;2024-03-29T06:12:35;54.80;;;42.53;;
47804;SDS011;33568;45.286;9.900;2024-03-29T06:15:07;59.42;;;45.45;;
47804;SDS011;33568;45.286;9.900;2024-03-29T06:17:52;55.30;;;42.60;;
47804;SDS011;33568;45.286;9.900;2024-03-29T06:20:18;58.50;;;46.00;;
47804;SDS011;33568;45.286;9.900;2024-03-29T06:25:11;59.92;;;45.22;;
47804;SDS011;33568;45.286;9.900;2024-03-29T06:27:38;61.72;;;46.53;;
47804;SDS011;33568;45.286;9.900;2024-03-29T06:30:05;62.13;;;47.67;;
47804;SDS011;33568;45.286;9.900;2024-03-29T06:32:33;61.08;;;47.30;;
47804;SDS011;33568;45.286;9.900;2024-03-29T06:35:00;69.80;;;49.88;;
47804;SDS011;33568;45.286;9.900;2024-03-29T06:37:26;68.35;;;51.88;;
47804;SDS011;33568;45.286;9.900;2024-03-29T06:39:54;66.72;;;49.03;;
47804;SDS011;33568;45.286;9.900;2024-03-29T06:42:20;75.95;;;51.28;;
47804;SDS011;33568;45.286;9.900;2024-03-29T06:44:47;69.30;;;50.53;;
47804;SDS011;33568;45.286;9.900;2024-03-29T06:47:14;72.60;;;51.92;;
47804;SDS011;33568;45.286;9.900;2024-03-29T06:49:40;72.55;;;51.35;;
47804;SDS011;33568;45.286;9.900;2024-03-29T06:52:07;66.93;;;50.53;;
47804;SDS011;33568;45.286;9.900;2024-03-29T06:57:00;77.97;;;54.05;;
47804;SDS011;33568;45.286;9.900;2024-03-29T06:59:27;77.63;;;54.85;;
47804;SDS011;33568;45.286;9.900;2024-03-29T07:01:54;83.22;;;57.03;;
47804;SDS011;33568;45.286;9.900;2024-03-29T07:06:51;78.22;;;53.13;;
47804;SDS011;33568;45.286;9.900;2024-03-29T07:09:17;76.43;;;54.78;;
47804;SDS011;33568;45.286;9.900;2024-03-29T07:11:45;80.78;;;55.22;;
47804;SDS011;33568;45.286;9.900;2024-03-29T07:14:13;80.07;;;58.25;;
47804;SDS011;33568;45.286;9.900;2024-03-29T07:16:40;78.68;;;57.60;;
47804;SDS011;33568;45.286;9.900;2024-03-29T07:19:07;74.80;;;53.40;;
47804;SDS011;33568;45.286;9.900;2024-03-29T07:21:34;78.10;;;54.80;;
47804;SDS011;33568;45.286;9.900;2024-03-29T07:24:00;81.45;;;56.25;;
47804;SDS011;33568;45.286;9.900;2024-03-29T07:26:27;78.03;;;54.72;;
47804;SDS011;33568;45.286;9.900;2024-03-29T07:28:53;78.13;;;53.55;;
47804;SDS011;33568;45.286;9.900;2024-03-29T07:33:46;78.47;;;53.50;;
47804;SDS011;33568;45.286;9.900;2024-03-29T07:36:12;80.63;;;55.78;;
47804;SDS011;33568;45.286;9.900;2024-03-29T07:41:05;72.88;;;51.90;;
47804;SDS011;33568;45.286;9.900;2024-03-29T07:43:39;77.57;;;54.22;;
47804;SDS011;33568;45.286;9.900;2024-03-29T07:46:07;78.63;;;52.60;;
47804;SDS011;33568;45.286;9.900;2024-03-29T07:48:34;72.95;;;52.50;;
47804;SDS011;33568;45.286;9.900;2024-03-29T07:51:02;69.88;;;50.55;;
47804;SDS011;33568;45.286;9.900;2024-03-29T07:55:54;71.15;;;47.67;;
47804;SDS011;33568;45.286;9.900;2024-03-29T08:00:49;74.63;;;49.55;;
47804;SDS011;33568;45.286;9.900;2024-03-29T08:03:17;66.00;;;50.63;;
47804;SDS011;33568;45.286;9.900;2024-03-29T08:05:53;65.32;;;51.17;;
47804;SDS011;33568;45.286;9.900;2024-03-29T08:08:23;65.60;;;49.63;;
47804;SDS011;33568;45.286;9.900;2024-03-29T08:10:50;72.07;;;53.15;;
47804;SDS011;33568;45.286;9.900;2024-03-29T08:13:17;65.72;;;50.25;;
47804;SDS011;33568;45.286;9.900;2024-03-29T08:15:46;65.80;;;51.15;;
47804;SDS011;33568;45.286;9.900;2024-03-29T08:18:13;58.47;;;47.65;;
47804;SDS011;33568;45.286;9.900;2024-03-29T08:23:06;66.97;;;49.40;;
47804;SDS011;33568;45.286;9.900;2024-03-29T08:25:32;71.05;;;50.97;;
47804;SDS011;33568;45.286;9.900;2024-03-29T08:27:59;61.20;;;49.55;;
47804;SDS011;33568;45.286;9.900;2024-03-29T08:30:25;66.90;;;46.50;;
47804;SDS011;33568;45.286;9.900;2024-03-29T08:32:52;53.58;;;43.15;;
47804;SDS011;33568;45.286;9.900;2024-03-29T08:35:19;62.28;;;44.10;;
47804;SDS011;33568;45.286;9.900;2024-03-29T08:37:46;52.47;;;43.92;;
47804;SDS011;33568;45.286;9.900;2024-03-29T08:40:12;52.38;;;42.75;;
47804;SDS011;33568;45.286;9.900;2024-03-29T08:42:38;51.72;;;44.28;;
47804;SDS011;33568;45.286;9.900;2024-03-29T08:45:05;54.70;;;43.42;;
47804;SDS011;33568;45.286;9.900;2024-03-29T08:47:34;55.17;;;41.58;;
47804;SDS011;33568;45.286;9.900;2024-03-29T08:50:00;48.83;;;42.00;;
47804;SDS011;33568;45.286;9.900;2024-03-29T08:52:30;49.08;;;39.08;;
47804;SDS011;33568;45.286;9.900;2024-03-29T08:54:56;43.80;;;37.58;;
47804;SDS011;33568;45.286;9.900;2024-03-29T08:57:22;46.05;;;35.53;;
47804;SDS011;33568;45.286;9.900;2024-03-29T08:59:49;46.53;;;36.10;;
47804;SDS011;33568;45.286;9.900;2024-03-29T09:04:42;44.75;;;34.08;;
47804;SDS011;33568;45.286;9.900;2024-03-29T09:07:08;40.63;;;34.42;;
47804;SDS011;33568;45.286;9.900;2024-03-29T09:12:05;47.63;;;34.95;;
47804;SDS011;33568;45.286;9.900;2024-03-29T09:14:31;39.33;;;33.63;;
47804;SDS011;33568;45.286;9.900;2024-03-29T09:16:58;42.85;;;34.70;;
47804;SDS011;33568;45.286;9.900;2024-03-29T09:19:24;38.45;;;34.42;;
47804;SDS011;33568;45.286;9.900;2024-03-29T09:24:18;36.78;;;30.88;;
47804;SDS011;33568;45.286;9.900;2024-03-29T09:26:50;36.95;;;32.97;;
47804;SDS011;33568;45.286;9.900;2024-03-29T09:29:17;39.95;;;32.70;;
47804;SDS011;33568;45.286;9.900;2024-03-29T09:31:46;32.88;;;29.30;;
47804;SDS011;33568;45.286;9.900;2024-03-29T09:34:12;36.13;;;29.42;;
47804;SDS011;33568;45.286;9.900;2024-03-29T09:36:39;40.60;;;29.05;;
47804;SDS011;33568;45.286;9.900;2024-03-29T09:41:32;32.08;;;25.40;;
47804;SDS011;33568;45.286;9.900;2024-03-29T09:44:03;34.63;;;27.17;;
47804;SDS011;33568;45.286;9.900;2024-03-29T09:46:32;31.80;;;26.63;;
47804;SDS011;33568;45.286;9.900;2024-03-29T09:48:59;28.75;;;25.73;;
47804;SDS011;33568;45.286;9.900;2024-03-29T09:51:28;30.00;;;24.60;;
47804;SDS011;33568;45.286;9.900;2024-03-29T09:53:55;26.58;;;23.73;;
47804;SDS011;33568;45.286;9.900;2024-03-29T09:56:27;27.55;;;22.30;;
47804;SDS011;33568;45.286;9.900;2024-03-29T09:58:54;29.20;;;22.02;;
47804;SDS011;33568;45.286;9.900;2024-03-29T10:03:50;24.08;;;19.08;;
47804;SDS011;33568;45.286;9.900;2024-03-29T10:06:18;20.50;;;16.90;;
47804;SDS011;33568;45.286;9.900;2024-03-29T10:08:45;18.90;;;14.38;;
47804;SDS011;33568;45.286;9.900;2024-03-29T10:11:14;23.92;;;16.52;;
47804;SDS011;33568;45.286;9.900;2024-03-29T10:13:44;22.88;;;15.15;;
47804;SDS011;33568;45.286;9.900;2024-03-29T10:16:11;19.15;;;12.55;;
47804;SDS011;33568;45.286;9.900;2024-03-29T10:18:40;11.98;;;10.65;;
47804;SDS011;33568;45.286;9.900;2024-03-29T10:21:09;15.57;;;10.50;;
47804;SDS011;33568;45.286;9.900;2024-03-29T10:26:02;13.27;;;7.97;;
47804;SDS011;33568;45.286;9.900;2024-03-29T10:28:32;13.68;;;8.15;;
47804;SDS011;33568;45.286;9.900;2024-03-29T10:31:04;9.15;;;6.70;;
47804;SDS011;33568;45.286;9.900;2024-03-29T10:33:31;12.68;;;7.13;;
47804;SDS011;33568;45.286;9.900;2024-03-29T10:36:02;15.32;;;6.90;;
47804;SDS011;33568;45.286;9.900;2024-03-29T10:38:30;9.52;;;6.22;;
47804;SDS011;33568;45.286;9.900;2024-03-29T10:40:57;15.38;;;7.30;;
47804;SDS011;33568;45.286;9.900;2024-03-29T10:43:24;17.52;;;8.43;;
47804;SDS011;33568;45.286;9.900;2024-03-29T10:45:51;14.75;;;7.32;;
47804;SDS011;33568;45.286;9.900;2024-03-29T10:48:20;10.32;;;6.30;;
47804;SDS011;33568;45.286;9.900;2024-03-29T10:50:50;11.32;;;6.50;;
47804;SDS011;33568;45.286;9.900;2024-03-29T10:53:18;9.90;;;5.30;;
47804;SDS011;33568;45.286;9.900;2024-03-29T10:55:45;9.30;;;5.70;;
47804;SDS011;33568;45.286;9.900;2024-03-29T10:58:12;15.05;;;6.75;;
47804;SDS011;33568;45.286;9.900;2024-03-29T11:00:46;18.95;;;8.38;;
47804;SDS011;33568;45.286;9.900;2024-03-29T11:03:19;14.32;;;8.25;;
47804;SDS011;33568;45.286;9.900;2024-03-29T11:05:53;15.07;;;8.25;;
47804;SDS011;33568;45.286;9.900;2024-03-29T11:08:26;20.98;;;9.23;;
47804;SDS011;33568;45.286;9.900;2024-03-29T11:10:58;15.82;;;7.70;;
47804;SDS011;33568;45.286;9.900;2024-03-29T11:15:57;14.10;;;8.00;;
47804;SDS011;33568;45.286;9.900;2024-03-29T11:18:25;17.80;;;7.43;;
47804;SDS011;33568;45.286;9.900;2024-03-29T11:20:56;14.02;;;6.55;;
47804;SDS011;33568;45.286;9.900;2024-03-29T11:23:25;14.23;;;7.35;;
47804;SDS011;33568;45.286;9.900;2024-03-29T11:25:53;11.93;;;6.53;;
47804;SDS011;33568;45.286;9.900;2024-03-29T11:28:25;14.30;;;7.47;;
47804;SDS011;33568;45.286;9.900;2024-03-29T11:31:02;14.65;;;6.25;;
47804;SDS011;33568;45.286;9.900;2024-03-29T11:33:56;15.05;;;7.22;;
47804;SDS011;33568;45.286;9.900;2024-03-29T11:36:21;13.52;;;8.02;;
47804;SDS011;33568;45.286;9.900;2024-03-29T11:38:53;18.73;;;8.02;;
47804;SDS011;33568;45.286;9.900;2024-03-29T11:41:22;17.23;;;6.78;;
47804;SDS011;33568;45.286;9.900;2024-03-29T11:43:53;14.05;;;8.02;;
47804;SDS011;33568;45.286;9.900;2024-03-29T11:46:29;18.10;;;9.13;;
47804;SDS011;33568;45.286;9.900;2024-03-29T11:49:01;12.93;;;9.18;;
47804;SDS011;33568;45.286;9.900;2024-03-29T11:53:54;16.30;;;10.38;;
47804;SDS011;33568;45.286;9.900;2024-03-29T11:56:20;20.83;;;11.13;;
47804;SDS011;33568;45.286;9.900;2024-03-29T11:58:47;18.85;;;11.40;;
47804;SDS011;33568;45.286;9.900;2024-03-29T12:01:14;23.15;;;11.32;;
47804;SDS011;33568;45.286;9.900;2024-03-29T12:03:42;17.10;;;10.25;;
47804;SDS011;33568;45.286;9.900;2024-03-29T12:06:13;19.63;;;10.30;;
47804;SDS011;33568;45.286;9.900;2024-03-29T12:08:41;16.70;;;10.10;;
47804;SDS011;33568;45.286;9.900;2024-03-29T12:11:08;20.17;;;10.77;;
47804;SDS011;33568;45.286;9.900;2024-03-29T12:13:35;14.95;;;9.48;;
47804;SDS011;33568;45.286;9.900;2024-03-29T12:16:02;21.58;;;10.68;;
47804;SDS011;33568;45.286;9.900;2024-03-29T12:18:31;18.83;;;10.35;;
47804;SDS011;33568;45.286;9.900;2024-03-29T12:20:58;17.95;;;9.23;;
47804;SDS011;33568;45.286;9.900;2024-03-29T12:23:24;23.30;;;9.90;;
47804;SDS011;33568;45.286;9.900;2024-03-29T12:25:54;19.75;;;9.30;;
47804;SDS011;33568;45.286;9.900;2024-03-29T12:28:23;13.05;;;8.15;;
47804;SDS011;33568;45.286;9.900;2024-03-29T12:30:50;19.67;;;8.48;;
47804;SDS011;33568;45.286;9.900;2024-03-29T12:33:19;18.80;;;8.63;;
47804;SDS011;33568;45.286;9.900;2024-03-29T12:35:46;14.20;;;7.72;;
47804;SDS011;33568;45.286;9.900;2024-03-29T12:38:19;18.33;;;8.40;;
47804;SDS011;33568;45.286;9.900;2024-03-29T12:40:46;19.02;;;8.10;;
47804;SDS011;33568;45.286;9.900;2024-03-29T12:43:15;16.23;;;7.85;;
47804;SDS011;33568;45.286;9.900;2024-03-29T12:45:46;15.77;;;7.55;;
47804;SDS011;33568;45.286;9.900;2024-03-29T12:48:13;19.02;;;8.75;;
47804;SDS011;33568;45.286;9.900;2024-03-29T12:50:42;17.17;;;8.23;;
47804;SDS011;33568;45.286;9.900;2024-03-29T12:53:10;15.43;;;7.53;;
47804;SDS011;33568;45.286;9.900;2024-03-29T12:55:39;15.50;;;8.00;;
47804;SDS011;33568;45.286;9.900;2024-03-29T12:58:10;20.10;;;7.68;;
47804;SDS011;33568;45.286;9.900;2024-03-29T13:00:39;17.90;;;8.15;;
47804;SDS011;33568;45.286;9.900;2024-03-29T13:03:06;20.40;;;7.95;;
47804;SDS011;33568;45.286;9.900;2024-03-29T13:05:37;18.42;;;7.60;;
47804;SDS011;33568;45.286;9.900;2024-03-29T13:08:08;14.88;;;6.68;;
47804;SDS011;33568;45.286;9.900;2024-03-29T13:10:36;20.13;;;7.43;;
47804;SDS011;33568;45.286;9.900;2024-03-29T13:13:05;21.45;;;8.35;;
47804;SDS011;33568;45.286;9.900;2024-03-29T13:15:33;16.83;;;8.52;;
47804;SDS011;33568;45.286;9.900;2024-03-29T13:18:02;18.20;;;8.52;;
47804;SDS011;33568;45.286;9.900;2024-03-29T13:20:30;22.08;;;9.00;;
47804;SDS011;33568;45.286;9.900;2024-03-29T13:22:57;18.23;;;8.30;;
47804;SDS011;33568;45.286;9.900;2024-03-29T13:25:24;20.13;;;9.13;;
47804;SDS011;33568;45.286;9.900;2024-03-29T13:27:52;18.67;;;8.15;;
47804;SDS011;33568;45.286;9.900;2024-03-29T13:30:21;20.60;;;8.60;;
47804;SDS011;33568;45.286;9.900;2024-03-29T13:32:49;17.42;;;7.95;;
47804;SDS011;33568;45.286;9.900;2024-03-29T13:35:16;18.90;;;8.40;;
47804;SDS011;33568;45.286;9.900;2024-03-29T13:37:44;13.98;;;6.38;;
47804;SDS011;33568;45.286;9.900;2024-03-29T13:40:14;26.40;;;8.45;;
47804;SDS011;33568;45.286;9.900;2024-03-29T13:42:42;18.58;;;7.10;;
47804;SDS011;33568;45.286;9.900;2024-03-29T13:45:09;19.92;;;7.45;;
47804;SDS011;33568;45.286;9.900;2024-03-29T13:47:36;20.80;;;7.25;;
47804;SDS011;33568;45.286;9.900;2024-03-29T13:50:05;15.18;;;7.07;;
47804;SDS011;33568;45.286;9.900;2024-03-29T13:52:33;19.25;;;7.35;;
47804;SDS011;33568;45.286;9.900;2024-03-29T13:55:00;21.85;;;9.13;;
47804;SDS011;33568;45.286;9.900;2024-03-29T13:57:29;24.92;;;10.05;;
47804;SDS011;33568;45.286;9.900;2024-03-29T13:59:57;23.45;;;8.73;;
47804;SDS011;33568;45.286;9.900;2024-03-29T14:02:26;20.17;;;8.63;;
47804;SDS011;33568;45.286;9.900;2024-03-29T14:04:54;19.02;;;10.43;;
47804;SDS011;33568;45.286;9.900;2024-03-29T14:07:21;14.75;;;7.88;;
47804;SDS011;33568;45.286;9.900;2024-03-29T14:09:50;16.77;;;10.00;;
47804;SDS011;33568;45.286;9.900;2024-03-29T14:12:18;16.02;;;7.95;;
47804;SDS011;33568;45.286;9.900;2024-03-29T14:14:47;20.88;;;10.95;;
47804;SDS011;33568;45.286;9.900;2024-03-29T14:17:16;17.50;;;9.13;;
47804;SDS011;33568;45.286;9.900;2024-03-29T14:19:43;15.75;;;8.43;;
47804;SDS011;33568;45.286;9.900;2024-03-29T14:22:10;18.48;;;7.72;;
47804;SDS011;33568;45.286;9.900;2024-03-29T14:24:41;23.98;;;7.13;;
47804;SDS011;33568;45.286;9.900;2024-03-29T14:27:08;18.20;;;7.05;;
47804;SDS011;33568;45.286;9.900;2024-03-29T14:29:34;19.95;;;8.50;;
47804;SDS011;33568;45.286;9.900;2024-03-29T14:32:01;20.42;;;9.65;;
47804;SDS011;33568;45.286;9.900;2024-03-29T14:34:30;20.05;;;8.57;;
47804;SDS011;33568;45.286;9.900;2024-03-29T14:37:03;16.20;;;7.70;;
47804;SDS011;33568;45.286;9.900;2024-03-29T14:41:56;16.65;;;6.63;;
47804;SDS011;33568;45.286;9.900;2024-03-29T14:44:24;17.95;;;8.40;;
47804;SDS011;33568;45.286;9.900;2024-03-29T14:46:50;19.35;;;9.43;;
47804;SDS011;33568;45.286;9.900;2024-03-29T14:51:44;15.50;;;7.23;;
47804;SDS011;33568;45.286;9.900;2024-03-29T14:54:10;33.33;;;14.13;;
47804;SDS011;33568;45.286;9.900;2024-03-29T14:56:37;25.42;;;22.08;;
47804;SDS011;33568;45.286;9.900;2024-03-29T15:01:37;36.42;;;25.40;;
47804;SDS011;33568;45.286;9.900;2024-03-29T15:06:30;41.83;;;27.92;;
47804;SDS011;33568;45.286;9.900;2024-03-29T15:08:56;29.75;;;26.45;;
47804;SDS011;33568;45.286;9.900;2024-03-29T15:11:27;36.47;;;27.38;;
47804;SDS011;33568;45.286;9.900;2024-03-29T15:13:53;33.97;;;28.40;;
47804;SDS011;33568;45.286;9.900;2024-03-29T15:16:20;31.95;;;28.25;;
47804;SDS011;33568;45.286;9.900;2024-03-29T15:18:47;36.63;;;29.83;;
47804;SDS011;33568;45.286;9.900;2024-03-29T15:21:13;33.03;;;27.70;;
47804;SDS011;33568;45.286;9.900;2024-03-29T15:23:40;39.03;;;29.40;;
47804;SDS011;33568;45.286;9.900;2024-03-29T15:28:34;41.85;;;31.05;;
47804;SDS011;33568;45.286;9.900;2024-03-29T15:31:20;38.65;;;31.83;;
47804;SDS011;33568;45.286;9.900;2024-03-29T15:33:48;33.53;;;29.15;;
47804;SDS011;33568;45.286;9.900;2024-03-29T15:36:15;41.95;;;29.60;;
47804;SDS011;33568;45.286;9.900;2024-03-29T15:38:42;37.60;;;30.67;;
47804;SDS011;33568;45.286;9.900;2024-03-29T15:41:10;39.83;;;32.97;;
47804;SDS011;33568;45.286;9.900;2024-03-29T15:43:37;46.95;;;34.25;;
47804;SDS011;33568;45.286;9.900;2024-03-29T15:46:05;45.03;;;33.13;;
47804;SDS011;33568;45.286;9.900;2024-03-29T15:50:57;44.80;;;33.50;;
47804;SDS011;33568;45.286;9.900;2024-03-29T15:55:50;45.85;;;35.03;;
47804;SDS011;33568;45.286;9.900;2024-03-29T15:58:17;39.75;;;32.78;;
47804;SDS011;33568;45.286;9.900;2024-03-29T16:03:10;43.83;;;34.88;;
47804;SDS011;33568;45.286;9.900;2024-03-29T16:05:42;35.22;;;31.27;;
47804;SDS011;33568;45.286;9.900;2024-03-29T16:08:10;48.83;;;34.13;;